createdAt,value
2022-12-17T07:15:11.743Z,7.15
2022-12-17T07:17:57.397Z,6.78
2022-12-17T07:20:43.215Z,6.42
2022-12-17T07:23:28.906Z,6.15
2022-12-17T07:26:16.735Z,5.95
2022-12-17T07:29:02.526Z,6.12
2022-12-17T07:31:48.258Z,6.41
2022-12-17T07:34:34.301Z,6.55
2022-12-17T07:37:20.789Z,6.51
2022-12-17T07:40:06.697Z,6.32
2022-12-17T07:42:52.814Z,6.14
2022-12-17T07:45:38.508Z,5.95
2022-12-17T07:48:24.780Z,5.77
2022-12-17T07:51:11.173Z,6.01
2022-12-17T07:53:56.962Z,6.21
2022-12-17T07:56:42.852Z,6.16
2022-12-17T07:59:28.637Z,6.02
2022-12-17T08:02:14.594Z,5.84
2022-12-17T08:05:00.522Z,5.59
2022-12-17T08:07:46.407Z,5.17
2022-12-17T16:31:14.914Z,2.94
2022-12-17T16:33:44.013Z,3.17
2022-12-17T16:36:13.790Z,3.32
2022-12-17T16:38:45.975Z,3.67
2022-12-17T16:41:14.282Z,3.80
2022-12-17T16:43:41.596Z,3.70
2022-12-17T16:46:32.525Z,3.56
2022-12-17T16:49:05.380Z,3.32
2022-12-17T16:51:33.047Z,3.09
2022-12-17T16:54:05.360Z,3.24
2022-12-17T16:56:38.011Z,3.55
2022-12-17T16:59:09.799Z,3.69
2022-12-17T17:01:38.359Z,3.64
2022-12-17T17:04:08.397Z,3.42
2022-12-17T17:06:41.432Z,3.16
2022-12-17T17:09:09.617Z,2.99
2022-12-17T17:11:37.389Z,3.19
2022-12-17T17:14:07.447Z,3.44
2022-12-17T17:16:35.097Z,3.60
2022-12-17T17:19:02.952Z,3.51
2022-12-17T17:21:33.107Z,3.37
2022-12-17T17:24:02.974Z,3.13
2022-12-17T17:26:32.053Z,2.96
2022-12-17T17:28:59.673Z,3.08
2022-12-17T17:32:01.152Z,3.43
2022-12-17T17:34:15.418Z,3.44
2022-12-17T17:36:42.982Z,3.33
2022-12-17T17:39:10.657Z,3.25
2022-12-17T17:41:37.895Z,3.03
2022-12-17T17:44:11.703Z,2.83
2022-12-17T17:46:40.302Z,3.11
2022-12-17T17:49:08.460Z,3.42
2022-12-17T17:52:08.561Z,3.51
2022-12-17T17:54:26.212Z,3.24
2022-12-17T17:56:53.565Z,3.07
2022-12-17T17:59:20.830Z,2.91
2022-12-17T18:01:50.639Z,2.71
2022-12-17T18:04:20.647Z,2.90
2022-12-17T18:07:16.468Z,3.16
2022-12-17T18:09:35.940Z,3.29
2022-12-17T18:12:23.361Z,3.23
2022-12-17T18:15:13.029Z,3.07
2022-12-17T18:17:38.165Z,2.93
2022-12-17T18:20:06.113Z,2.72
2022-12-17T18:22:33.373Z,2.83
2022-12-17T18:25:00.427Z,3.21
2022-12-17T18:27:27.566Z,3.30
2022-12-17T18:29:54.551Z,3.27
2022-12-17T18:32:21.508Z,3.01
2022-12-17T18:34:48.520Z,2.82
